Bryan's Hourly Summary for Tuesday, March 14, 2017
Hour Temp
(f)
RH
(%)
Solar Rad.
(MJ/m2)
Rainfall
(in)
Wind
(mph)
3/14/2017 12:00 AM 53 58 0 0 4.68
3/14/2017 1:00 AM 51 55 0 0 8.13
3/14/2017 2:00 AM 49 52 0 0 7.43
3/14/2017 3:00 AM 47 52 0 0 5
3/14/2017 4:00 AM 45 57 0 0 1.76
3/14/2017 5:00 AM 42 65 0 0 1.85
3/14/2017 6:00 AM 41 69 0 0 2.7
3/14/2017 7:00 AM 40 70 0 0 1.87
3/14/2017 8:00 AM 39 71 0.02 0 1.46
3/14/2017 9:00 AM 42 61 0.51 0 3.68
3/14/2017 10:00 AM 46 50 1.25 0 6.88
3/14/2017 11:00 AM 48 47 1.82 0 4.72
3/14/2017 12:00 PM 52 42 2.56 0 2.24
3/14/2017 1:00 PM 55 38 2.94 0 2.93
3/14/2017 2:00 PM 58 35 3.07 0 2.55
3/14/2017 3:00 PM 61 33 2.92 0 2.64
3/14/2017 4:00 PM 64 30 2.61 0 3.1
3/14/2017 5:00 PM 66 28 2.04 0 3.7
3/14/2017 6:00 PM 67 26 1.28 0 4.33
3/14/2017 7:00 PM 66 28 0.61 0 5.16
3/14/2017 8:00 PM 64 33 0.07 0 2.74
3/14/2017 9:00 PM 59 45 0 0 2.71
3/14/2017 10:00 PM 57 49 0 0 2.6
3/14/2017 11:00 PM 57 52 0 0 3.5
Data Summary 52 47 21.70 0.00 3.68